CDT,Max TemperatureF,Mean TemperatureF,Min TemperatureF,Max Dew PointF,MeanDew PointF,Min DewpointF,Max Humidity, Mean Humidity, Min Humidity, Max Sea Level PressureIn, Mean Sea Level PressureIn, Min Sea Level PressureIn, Max VisibilityMiles, Mean VisibilityMiles, Min VisibilityMiles, Max Wind SpeedMPH, Mean Wind SpeedMPH, Max Gust SpeedMPH,PrecipitationIn, CloudCover, Events, WindDirDegrees
2011-6-1,97,83,69,66,58,39,90,60,30,30.14,29.98,29.80,10,9,4,45,16,54,0.00,1,,175
2011-6-2,101,85,69,61,52,39,66,42,18,29.88,29.75,29.59,10,10,9,45,21,56,0.04,1,Rain-Thunderstorm,184
2011-6-3,99,84,68,52,47,43,51,34,17,30.03,29.77,29.60,10,9,2,45,20,58,T,1,Thunderstorm,203
2011-6-4,96,80,64,50,45,36,60,37,13,30.01,29.94,29.84,10,10,10,25,11,30,0.00,0,,189
2011-6-5,97,78,58,48,46,45,62,40,17,30.03,29.94,29.84,10,10,10,26,13,35,0.00,0,,203
2011-6-6,99,84,68,46,39,34,41,27,13,29.86,29.74,29.63,10,10,10,36,20,45,0.00,0,,191
2011-6-7,103,87,70,56,30,12,57,31,4,29.65,29.57,29.43,10,10,6,32,17,38,0.00,1,,198
2011-6-8,97,77,57,60,41,29,56,35,14,29.70,29.62,29.56,10,10,10,26,10,33,0.00,0,,331
2011-6-9,90,75,59,56,49,44,72,47,21,29.78,29.68,29.56,10,10,10,35,17,44,0.00,0,,43
2011-6-10,84,70,56,53,51,48,80,56,32,30.01,29.85,29.69,10,10,10,29,15,35,0.00,3,,29
2011-6-11,93,77,60,59,56,51,84,55,26,29.92,29.80,29.60,10,10,5,36,14,46,0.01,0,,106
2011-6-12,97,77,57,61,53,37,100,57,13,29.88,29.69,29.61,10,10,4,17,9,24,0.00,1,,70
2011-6-13,106,89,72,60,34,11,54,29,3,29.74,29.62,29.54,10,10,10,28,14,36,0.00,0,,218
2011-6-14,94,80,65,65,56,33,87,53,19,29.94,29.77,29.60,10,7,2,35,11,40,0.09,4,Rain-Thunderstorm,17
2011-6-15,97,79,60,58,51,41,84,50,15,30.03,29.77,29.61,10,10,10,23,10,31,0.02,1,Rain-Thunderstorm,119
2011-6-16,108,88,67,60,38,16,60,32,4,29.60,29.44,29.29,10,10,10,28,13,37,0.00,0,,186
2011-6-17,95,79,63,64,48,24,72,44,16,29.64,29.53,29.37,10,10,10,30,13,38,0.00,0,,24
2011-6-18,96,79,61,57,50,38,72,44,16,29.77,29.68,29.55,10,10,10,26,8,33,0.00,1,,23
2011-6-19,105,82,59,60,40,13,80,42,4,29.70,29.45,29.24,10,10,10,37,14,49,0.00,1,,206
2011-6-20,81,73,64,63,49,26,73,44,14,29.66,29.45,29.20,10,10,10,36,18,45,0.00,3,,292
2011-6-21,89,76,63,51,45,39,63,41,18,29.83,29.76,29.70,10,10,10,25,13,32,0.00,1,,335
2011-6-22,97,79,60,44,41,39,48,31,14,29.95,29.85,29.75,10,10,10,23,8,32,0.00,1,,231
2011-6-23,106,87,67,54,43,32,45,27,8,29.84,29.72,29.58,10,10,10,23,12,29,0.00,0,,110
2011-6-24,103,86,69,55,46,41,39,26,12,29.62,29.55,29.43,10,10,10,20,9,24,0.00,0,,138
2011-6-25,101,83,65,62,52,38,57,37,17,29.68,29.58,29.42,10,10,10,22,11,29,0.00,0,,35
2011-6-26,113,87,61,55,35,10,67,35,3,29.71,29.52,29.42,10,10,10,36,12,43,0.00,0,,239
2011-6-27,89,81,73,67,52,25,79,46,13,29.98,29.83,29.49,10,10,9,29,17,37,0.00,2,,21
2011-6-28,101,83,65,63,55,49,66,44,21,30.05,29.95,29.76,10,10,5,29,13,37,0.27,1,Rain-Thunderstorm,125
2011-6-29,107,88,68,62,50,38,70,41,11,29.90,29.78,29.67,10,10,10,29,16,41,0.00,0,,184
2011-6-30,106,87,68,50,46,39,47,30,12,29.80,29.73,29.67,10,10,10,26,17,37,0.00,0,,189